Time;durP1;ratioP1;P1;durP2;ratioP2;P2;SDS_P1;SDS_P2;PMS_P1;PMS_P2;Temp;Humidity;BMP_temperature;BMP_pressure;BME280_temperature;BME280_humidity;BME280_pressure;Samples;Min_cycle;Max_cycle;Signal;HPM_P1;HPM_P2
2023/05/26 00:00:45;;;;;;;;;;;;;;;12.64;100.00;101301.91;6298366;22;20029;-88
2023/05/26 00:03:11;;;;;;;9.52;6.38;;;;;;;12.56;100.00;101298.72;6299638;22;19945;-88
2023/05/26 00:05:43;;;;;;;11.75;6.78;;;;;;;12.45;100.00;101287.66;6294607;22;20008;-88
2023/05/26 00:08:12;;;;;;;9.88;6.65;;;;;;;12.29;100.00;101268.81;6291162;22;20361;-88
2023/05/26 00:10:41;;;;;;;12.43;6.88;;;;;;;12.33;100.00;101277.53;6288582;22;20445;-89
2023/05/26 00:13:07;;;;;;;14.85;7.55;;;;;;;12.36;100.00;101295.13;6289450;22;20505;-89
2023/05/26 00:15:35;;;;;;;18.50;7.43;;;;;;;12.30;100.00;101282.97;6288539;22;20019;-88
2023/05/26 00:18:10;;;;;;;12.52;6.95;;;;;;;12.31;100.00;101274.06;6291042;22;20017;-88
2023/05/26 00:20:39;;;;;;;12.85;7.07;;;;;;;12.44;100.00;101301.00;6289389;22;20019;-88
2023/05/26 00:23:07;;;;;;;11.95;6.85;;;;;;;12.37;100.00;101289.75;6289564;22;20015;-87
2023/05/26 00:25:34;;;;;;;12.45;6.68;;;;;;;12.40;100.00;101307.38;6289995;22;20045;-87
2023/05/26 00:28:03;;;;;;;10.93;7.00;;;;;;;12.30;100.00;101286.47;6289908;22;20015;-88
2023/05/26 00:30:32;;;;;;;10.57;7.10;;;;;;;12.36;100.00;101300.44;6267452;22;20033;-87
2023/05/26 00:33:04;;;;;;;14.40;7.15;;;;;;;12.27;100.00;101293.72;6291303;22;20016;-89
2023/05/26 00:35:33;;;;;;;11.15;7.00;;;;;;;12.37;100.00;101303.06;6268593;22;20080;-89
2023/05/26 00:38:00;;;;;;;11.80;7.28;;;;;;;12.35;100.00;101304.91;6295600;22;20106;-90
2023/05/26 00:40:27;;;;;;;9.65;6.00;;;;;;;12.27;100.00;101297.25;6294967;22;20015;-89
2023/05/26 00:43:08;;;;;;;11.07;6.90;;;;;;;12.27;100.00;101296.38;6318379;22;20016;-90
2023/05/26 00:45:36;;;;;;;12.35;7.18;;;;;;;12.10;100.00;101278.47;6318414;22;20015;-90
2023/05/26 00:48:06;;;;;;;8.43;6.63;;;;;;;12.18;100.00;101294.94;6291312;22;20320;-89
2023/05/26 00:50:39;;;;;;;13.75;6.80;;;;;;;12.11;100.00;101288.16;6292193;22;20143;-89
2023/05/26 00:53:08;;;;;;;15.88;7.00;;;;;;;12.07;100.00;101278.56;6293060;22;20019;-88
2023/05/26 00:55:35;;;;;;;11.90;6.45;;;;;;;12.14;100.00;101285.34;6290654;22;20297;-88
2023/05/26 00:58:08;;;;;;;12.75;7.25;;;;;;;12.17;100.00;101300.31;6319028;22;20064;-87
2023/05/26 01:00:39;;;;;;;11.87;6.70;;;;;;;12.10;100.00;101283.78;6283139;22;20011;-87
2023/05/26 01:03:30;;;;;;;11.10;6.85;;;;;;;12.10;100.00;101288.22;6291837;22;20410;-89
2023/05/26 01:06:05;;;;;;;14.68;7.32;;;;;;;12.10;100.00;101273.16;6324012;22;20070;-87
2023/05/26 01:08:36;;;;;;;12.18;7.00;;;;;;;12.08;100.00;101282.97;6327669;22;20081;-89
2023/05/26 01:11:16;;;;;;;13.18;7.38;;;;;;;12.00;100.00;101271.75;6292424;22;20039;-89
2023/05/26 01:13:52;;;;;;;10.43;7.20;;;;;;;11.97;100.00;101265.69;6317903;22;20102;-88
2023/05/26 01:16:27;;;;;;;14.27;6.75;;;;;;;11.82;100.00;101249.44;6295474;22;20297;-87
2023/05/26 01:19:06;;;;;;;16.45;6.82;;;;;;;11.92;100.00;101273.84;6321578;22;20015;-89
2023/05/26 01:21:48;;;;;;;11.15;7.03;;;;;;;11.73;100.00;101246.25;6294610;22;20019;-89
2023/05/26 01:24:49;;;;;;;13.10;7.30;;;;;;;11.82;100.00;101273.31;6304199;22;20021;-88
2023/05/26 01:28:00;;;;;;;16.27;7.50;;;;;;;11.88;100.00;101288.16;6307377;22;20043;-88
2023/05/26 01:30:31;;;;;;;13.70;6.97;;;;;;;11.88;100.00;101291.69;6294515;22;20014;-90
2023/05/26 01:33:05;;;;;;;12.25;7.32;;;;;;;11.88;100.00;101288.16;6294180;22;20049;-89
2023/05/26 01:35:37;;;;;;;11.93;7.18;;;;;;;11.78;100.00;101273.53;6292427;22;20090;-89
2023/05/26 01:38:10;;;;;;;11.75;6.90;;;;;;;11.56;100.00;101234.50;6294445;22;20021;-89
2023/05/26 01:40:41;;;;;;;13.98;7.60;;;;;;;11.70;100.00;101257.84;6267277;22;20017;-89
2023/05/26 01:43:12;;;;;;;16.00;7.50;;;;;;;11.81;100.00;101282.22;6319452;22;20023;-86
2023/05/26 01:45:46;;;;;;;11.20;7.32;;;;;;;11.49;100.00;101232.97;6293168;22;20418;-88
2023/05/26 01:48:17;;;;;;;13.90;7.35;;;;;;;11.76;100.00;101278.03;6326749;22;20068;-88
2023/05/26 01:50:50;;;;;;;15.07;7.28;;;;;;;11.66;100.00;101253.56;6297885;22;20077;-88
2023/05/26 01:53:21;;;;;;;11.95;7.22;;;;;;;11.74;100.00;101274.53;6292990;22;20447;-88
2023/05/26 01:55:59;;;;;;;10.77;7.10;;;;;;;11.67;100.00;101275.66;6268407;22;20034;-89
2023/05/26 01:58:31;;;;;;;11.52;7.00;;;;;;;11.70;100.00;101289.69;6293942;22;20011;-89
2023/05/26 02:00:58;;;;;;;13.52;6.78;;;;;;;11.71;100.00;101287.91;6290374;22;20023;-87
2023/05/26 02:03:29;;;;;;;;;;;;;;;11.65;100.00;101291.63;6317048;22;20086;-88
2023/05/26 02:05:56;;;;;;;16.63;7.32;;;;;;;11.63;100.00;101293.50;6289702;22;19911;-87
2023/05/26 02:08:23;;;;;;;13.68;7.00;;;;;;;11.53;100.00;101285.00;6289807;22;20019;-87
2023/05/26 02:10:50;;;;;;;12.23;7.38;;;;;;;11.61;100.00;101292.69;6318810;22;20027;-88
2023/05/26 02:13:21;;;;;;;11.60;6.85;;;;;;;11.59;100.00;101287.44;6268660;22;20014;-89
2023/05/26 02:15:48;;;;;;;19.88;7.97;;;;;;;11.49;100.00;101279.88;6290542;22;20015;-87
2023/05/26 02:18:16;;;;;;;10.93;6.95;;;;;;;11.51;100.00;101292.16;6316825;22;20019;-88
2023/05/26 02:20:45;;;;;;;9.60;7.38;;;;;;;11.52;100.00;101291.22;6290937;22;20018;-88
2023/05/26 02:23:13;;;;;;;11.93;7.35;;;;;;;11.46;100.00;101280.88;6291471;22;20018;-88
2023/05/26 02:25:41;;;;;;;12.60;7.38;;;;;;;11.30;100.00;101257.59;6291615;22;20015;-87
2023/05/26 02:28:08;;;;;;;12.98;7.85;;;;;;;11.26;100.00;101259.50;6291338;22;20026;-87
2023/05/26 02:30:38;;;;;;;13.93;7.95;;;;;;;11.22;100.00;101252.56;6293095;22;20015;-89
2023/05/26 02:33:06;;;;;;;19.42;7.68;;;;;;;11.40;100.00;101280.19;6270772;22;20030;-87
2023/05/26 02:35:36;;;;;;;14.60;7.55;;;;;;;11.33;100.00;101279.56;6305174;22;20026;-88
2023/05/26 02:38:03;;;;;;;17.65;7.88;;;;;;;11.11;100.00;101244.13;6302766;22;20017;-88
2023/05/26 02:40:32;;;;;;;12.20;7.72;;;;;;;11.21;100.00;101269.38;6296384;22;20015;-88
2023/05/26 02:43:02;;;;;;;14.40;8.13;;;;;;;11.01;100.00;101248.91;6317088;22;20011;-86
2023/05/26 02:45:30;;;;;;;13.00;7.95;;;;;;;11.18;100.00;101282.75;6267153;22;20015;-87
2023/05/26 02:47:57;;;;;;;16.17;7.97;;;;;;;11.06;100.00;101270.81;6290264;22;20504;-87
2023/05/26 02:50:24;;;;;;;16.80;8.23;;;;;;;11.06;100.00;101275.22;6296814;22;20049;-86
2023/05/26 02:52:51;;;;;;;16.08;8.18;;;;;;;11.05;100.00;101278.81;6299466;22;20015;-86
2023/05/26 02:55:18;;;;;;;17.30;9.48;;;;;;;11.05;100.00;101278.81;6290599;22;20011;-87
2023/05/26 02:57:47;;;;;;;12.95;8.57;;;;;;;10.81;100.00;101254.91;6299043;22;20035;-86
2023/05/26 03:00:21;;;;;;;14.50;9.27;;;;;;;10.97;100.00;101286.16;6275185;22;20019;-88
2023/05/26 03:03:02;;;;;;;14.30;9.02;;;;;;;10.95;100.00;101285.34;6298525;22;20070;-87
2023/05/26 03:05:32;;;;;;;15.52;9.38;;;;;;;10.93;100.00;101271.28;6300866;22;20030;-88
2023/05/26 03:08:00;;;;;;;17.38;9.10;;;;;;;10.94;100.00;101283.63;6304101;22;20019;-86
2023/05/26 03:10:26;;;;;;;14.50;8.68;;;;;;;10.87;100.00;101277.66;6327418;22;20019;-89
2023/05/26 03:12:56;;;;;;;17.33;8.73;;;;;;;10.92;100.00;101281.00;6304921;22;20027;-87
2023/05/26 03:15:25;;;;;;;14.30;8.60;;;;;;;10.94;100.00;101276.53;6271595;22;20077;-87
2023/05/26 03:17:53;;;;;;;16.75;9.20;;;;;;;10.86;100.00;101268.00;6295637;22;20026;-87
2023/05/26 03:20:20;;;;;;;14.88;9.27;;;;;;;10.84;100.00;101265.41;6304388;22;20011;-86
2023/05/26 03:22:48;;;;;;;17.45;9.82;;;;;;;10.84;100.00;101264.53;6302523;22;20497;-88
2023/05/26 03:25:18;;;;;;;14.50;9.32;;;;;;;10.85;100.00;101267.13;6294302;22;20443;-86
2023/05/26 03:27:46;;;;;;;15.13;9.70;;;;;;;10.91;100.00;101276.63;6281481;22;20033;-87
2023/05/26 03:30:19;;;;;;;12.60;8.80;;;;;;;10.87;100.00;101270.56;6294164;22;20015;-88
2023/05/26 03:32:46;;;;;;;21.15;9.75;;;;;;;10.84;100.00;101267.19;6289866;22;20019;-88
2023/05/26 03:35:13;;;;;;;14.52;9.32;;;;;;;10.75;100.00;101259.53;6289181;22;20015;-89
2023/05/26 03:37:42;;;;;;;13.43;8.98;;;;;;;10.90;100.00;101283.72;6289846;22;20023;-87
2023/05/26 03:40:09;;;;;;;15.70;9.35;;;;;;;10.84;100.00;101269.81;6317941;22;20015;-88
2023/05/26 03:42:40;;;;;;;13.38;9.38;;;;;;;10.83;100.00;101273.41;6306810;22;20008;-87
2023/05/26 03:45:07;;;;;;;15.43;9.82;;;;;;;10.90;100.00;101281.06;6301833;22;20019;-89
2023/05/26 03:47:33;;;;;;;16.50;9.52;;;;;;;10.89;100.00;101279.31;6262805;22;20015;-88
2023/05/26 03:50:01;;;;;;;16.85;10.35;;;;;;;10.86;100.00;101274.13;6316688;22;20023;-88
2023/05/26 03:52:42;;;;;;;;;;;;;;;10.83;100.00;101290.16;6299233;22;20015;-89
2023/05/26 03:55:10;;;;;;;16.50;9.45;;;;;;;10.75;100.00;101273.63;6296224;22;19942;-89
2023/05/26 03:57:38;;;;;;;16.40;9.68;;;;;;;10.71;100.00;101258.75;6295123;22;20026;-89
2023/05/26 04:00:10;;;;;;;12.25;9.25;;;;;;;10.87;100.00;101278.50;6317463;22;20068;-87
2023/05/26 04:02:50;;;;;;;17.05;9.38;;;;;;;10.97;100.00;101283.50;6291781;22;20018;-88
2023/05/26 04:05:17;;;;;;;18.35;9.70;;;;;;;11.00;100.00;101286.06;6287900;22;20049;-87
2023/05/26 04:07:46;;;;;;;17.77;9.45;;;;;;;11.01;100.00;101280.72;6288940;22;20029;-87
2023/05/26 04:10:13;;;;;;;19.23;9.80;;;;;;;10.93;100.00;101272.16;6287511;22;20065;-89
2023/05/26 04:12:40;;;;;;;19.27;9.50;;;;;;;11.00;100.00;101280.75;6289089;22;20039;-88
2023/05/26 04:15:09;;;;;;;17.13;9.52;;;;;;;11.03;100.00;101297.41;6314034;22;20098;-87
2023/05/26 04:17:38;;;;;;;15.98;9.55;;;;;;;10.90;100.00;101265.16;6262539;22;20023;-87
2023/05/26 04:20:13;;;;;;;17.98;9.55;;;;;;;11.00;100.00;101283.41;6288731;22;20015;-87
2023/05/26 04:22:41;;;;;;;18.23;9.68;;;;;;;11.04;100.00;101292.97;6289262;22;20321;-87
2023/05/26 04:25:08;;;;;;;15.98;9.65;;;;;;;11.07;100.00;101287.56;6288772;22;20333;-87
2023/05/26 04:27:35;;;;;;;19.08;9.98;;;;;;;11.14;100.00;101300.56;6287185;22;20022;-87
2023/05/26 04:30:05;;;;;;;20.67;9.55;;;;;;;11.18;100.00;101296.00;6316217;22;20047;-89
2023/05/26 04:32:35;;;;;;;16.77;10.00;;;;;;;11.22;100.00;101298.50;6288516;22;20061;-87
2023/05/26 04:35:06;;;;;;;18.42;9.55;;;;;;;11.27;100.00;101305.44;6288577;22;20019;-86
2023/05/26 04:37:42;;;;;;;21.83;9.23;;;;;;;11.33;100.00;101297.28;6290299;22;20008;-87
2023/05/26 04:40:28;;;;;;;17.70;9.35;;;;;;;11.31;100.00;101280.56;6311400;22;20384;-87
2023/05/26 04:43:03;;;;;;;15.77;9.55;;;;;;;11.45;100.00;101305.66;6290789;22;20095;-88
2023/05/26 04:45:29;;;;;;;21.33;9.88;;;;;;;11.48;100.00;101304.69;6291567;22;20011;-87
2023/05/26 04:48:00;;;;;;;18.98;9.30;;;;;;;11.52;100.00;101309.78;6266666;22;20057;-87
2023/05/26 04:50:41;;;;;;;22.35;9.60;;;;;;;11.56;100.00;101305.25;6270753;22;20082;-89
2023/05/26 04:53:11;;;;;;;19.75;9.63;;;;;;;11.58;100.00;101306.94;6291207;22;20019;-89
2023/05/26 04:55:45;;;;;;;18.38;9.40;;;;;;;11.54;100.00;101289.38;6293575;22;20028;-87
2023/05/26 05:02:23;;;;;;;21.58;9.40;;;;;;;11.70;100.00;101302.09;6321710;22;20018;-88
2023/05/26 05:05:05;;;;;;;19.38;8.90;;;;;;;11.82;100.00;101304.31;6316445;22;20015;-87
2023/05/26 05:07:32;;;;;;;18.67;8.82;;;;;;;11.84;100.00;101299.81;6305117;22;20046;-87
2023/05/26 05:10:24;;;;;;;22.58;9.45;;;;;;;11.87;100.00;101311.19;6317815;22;20106;-88
2023/05/26 05:12:55;;;;;;;16.85;8.70;;;;;;;11.92;100.00;101314.53;6286183;22;20012;-88
2023/05/26 05:15:22;;;;;;;20.80;8.95;;;;;;;11.97;100.00;101314.34;6290899;22;20011;-88
2023/05/26 05:18:05;;;;;;;24.23;9.23;;;;;;;12.00;100.00;101316.03;6319501;22;20011;-87
2023/05/26 05:20:46;;;;;;;22.20;9.52;;;;;;;12.10;100.00;101323.59;6297629;22;20061;-88
2023/05/26 05:23:16;;;;;;;23.70;8.73;;;;;;;12.12;100.00;101315.56;6293389;22;20022;-87
2023/05/26 05:25:43;;;;;;;22.55;9.40;;;;;;;12.20;100.00;101317.00;6297136;22;20019;-87
2023/05/26 05:28:13;;;;;;;24.80;8.98;;;;;;;12.24;100.00;101310.63;6274242;22;20019;-89
2023/05/26 05:30:44;;;;;;;21.83;8.63;;;;;;;12.16;100.00;101295.91;6296791;22;20043;-88
2023/05/26 05:33:13;;;;;;;22.77;8.55;;;;;;;12.40;100.00;101323.31;6272611;22;20011;-89
2023/05/26 05:35:39;;;;;;;23.23;9.25;;;;;;;12.40;100.00;101316.22;6291217;22;20019;-88
2023/05/26 05:38:26;;;;;;;21.10;8.07;;;;;;;12.50;100.00;101320.22;6293091;22;20013;-88
2023/05/26 05:41:00;;;;;;;19.92;8.10;;;;;;;12.41;100.00;101306.44;6291980;22;20007;-87
2023/05/26 05:43:29;;;;;;;21.33;8.30;;;;;;;12.53;100.00;101324.56;6290748;22;20047;-87
2023/05/26 05:45:57;;;;;;;27.30;9.13;;;;;;;12.60;100.00;101320.69;6290551;22;20297;-87
2023/05/26 05:48:42;;;;;;;24.45;9.15;;;;;;;12.67;100.00;101340.78;6272529;22;20027;-86
2023/05/26 05:51:10;;;;;;;21.15;8.02;;;;;;;12.67;100.00;101327.50;6316908;22;20015;-87
2023/05/26 05:53:40;;;;;;;20.40;8.40;;;;;;;12.83;100.00;101341.91;6293991;22;20015;-87
2023/05/26 05:56:07;;;;;;;21.48;8.02;;;;;;;12.85;100.00;101329.41;6290601;22;20015;-88
2023/05/26 05:58:38;;;;;;;21.85;8.40;;;;;;;12.93;100.00;101334.41;6291547;22;20081;-87
2023/05/26 06:01:07;;;;;;;24.30;8.30;;;;;;;13.04;100.00;101340.16;6289743;22;20011;-87
2023/05/26 06:03:42;;;;;;;24.17;8.88;;;;;;;13.19;100.00;101349.31;6293676;22;20019;-87
2023/05/26 06:06:10;;;;;;;23.30;8.13;;;;;;;13.22;100.00;101339.38;6288732;22;20022;-87
2023/05/26 06:08:42;;;;;;;21.90;7.88;;;;;;;13.43;100.00;101350.03;6264174;22;20042;-87
2023/05/26 06:11:25;;;;;;;28.55;8.05;;;;;;;13.48;100.00;101334.75;6293339;22;20015;-87
2023/05/26 06:13:55;;;;;;;22.27;8.05;;;;;;;13.75;100.00;101352.13;6283618;22;20098;-87
2023/05/26 06:16:23;;;;;;;23.15;7.70;;;;;;;13.99;100.00;101368.81;6261499;22;20026;-87
2023/05/26 06:18:58;;;;;;;19.23;7.43;;;;;;;14.30;100.00;101358.47;6287231;22;20018;-88
2023/05/26 06:21:35;;;;;;;21.95;7.20;;;;;;;14.64;97.69;101364.84;6289133;22;20016;-86
2023/05/26 06:24:16;;;;;;;19.23;7.30;;;;;;;14.86;94.51;101343.34;6288740;22;20023;-88
2023/05/26 06:26:48;;;;;;;21.30;7.43;;;;;;;15.20;91.83;101366.53;6287041;22;20023;-87
2023/05/26 06:29:46;;;;;;;22.10;7.47;;;;;;;15.53;88.96;101371.94;6265278;22;20015;-87
2023/05/26 06:36:12;;;;;;;19.90;7.45;;;;;;;16.12;84.74;101375.00;6294189;22;20022;-90
2023/05/26 06:38:56;;;;;;;22.50;7.10;;;;;;;16.23;84.46;101371.72;6268446;22;20325;-87
2023/05/26 06:45:20;;;;;;;20.38;6.97;;;;;;;16.66;78.64;101380.94;6288709;22;20022;-88
2023/05/26 06:47:52;;;;;;;18.60;6.88;;;;;;;16.70;76.26;101373.59;6285857;22;20081;-88
2023/05/26 06:50:22;;;;;;;21.92;7.47;;;;;;;16.84;82.36;101381.72;6258518;22;20015;-88
2023/05/26 06:52:52;;;;;;;23.77;7.20;;;;;;;17.01;81.12;101378.91;6210014;22;20086;-88
2023/05/26 06:55:32;;;;;;;20.10;6.57;;;;;;;16.95;75.88;101383.78;6257542;22;20015;-86
2023/05/26 06:58:03;;;;;;;;;;;;;;;17.09;78.48;101383.81;6296346;22;20046;-88
2023/05/26 07:01:01;;;;;;;19.77;6.45;;;;;;;17.41;76.19;101371.22;6267414;22;19911;-88
2023/05/26 07:03:30;;;;;;;19.85;6.40;;;;;;;17.35;71.83;101353.69;6268400;22;20073;-88
2023/05/26 07:05:58;;;;;;;20.35;6.65;;;;;;;17.46;71.26;101369.13;6263300;22;20027;-87
2023/05/26 07:08:43;;;;;;;21.27;6.60;;;;;;;17.27;71.95;101360.47;6267176;22;20015;-88
2023/05/26 07:11:32;;;;;;;18.90;7.00;;;;;;;17.33;77.68;101381.50;6276338;22;20011;-88
2023/05/26 07:14:20;;;;;;;22.05;6.10;;;;;;;17.64;79.31;101378.75;6292856;22;20094;-88
2023/05/26 07:17:13;;;;;;;17.83;6.20;;;;;;;17.73;69.21;101356.75;6286874;22;20015;-87
2023/05/26 07:19:43;;;;;;;18.98;6.50;;;;;;;17.86;70.33;101378.31;6260166;22;20067;-89
2023/05/26 07:22:28;;;;;;;21.83;7.15;;;;;;;17.87;70.66;101364.81;6283725;22;20498;-89
2023/05/26 07:24:59;;;;;;;19.05;6.40;;;;;;;18.13;72.80;101387.28;6236449;22;20016;-87
2023/05/26 07:27:50;;;;;;;19.15;6.70;;;;;;;18.48;71.02;101389.56;6204209;22;20042;-89
2023/05/26 07:30:34;;;;;;;19.75;6.43;;;;;;;18.69;68.57;101393.59;6281314;22;20478;-87
2023/05/26 07:33:34;;;;;;;;;;;;;;;18.96;64.04;101385.53;6265143;22;20081;-88
2023/05/26 07:36:16;;;;;;;20.10;6.20;;;;;;;19.04;61.82;101380.53;6261200;22;19915;-88
2023/05/26 07:38:46;;;;;;;16.95;6.32;;;;;;;19.10;61.60;101374.75;6261327;22;20012;-88
2023/05/26 07:41:15;;;;;;;17.63;6.45;;;;;;;18.99;63.46;101385.34;6260220;22;20022;-87
2023/05/26 07:43:50;;;;;;;17.17;6.35;;;;;;;18.94;65.37;101371.34;6164193;23;20021;-89
2023/05/26 07:46:21;;;;;;;18.15;6.75;;;;;;;18.93;63.93;101380.38;6142393;23;20134;-90
2023/05/26 07:49:06;;;;;;;19.55;6.20;;;;;;;18.81;63.76;101386.56;6166384;23;20018;-88
2023/05/26 07:51:37;;;;;;;23.33;6.82;;;;;;;18.90;62.13;101375.19;6141911;23;20014;-88
2023/05/26 07:54:20;;;;;;;17.73;6.65;;;;;;;18.96;61.49;101358.69;6142087;23;20021;-88
2023/05/26 07:57:06;;;;;;;18.02;5.32;;;;;;;19.13;61.16;101387.97;6140950;23;20017;-88
2023/05/26 07:59:49;;;;;;;18.05;6.20;;;;;;;19.18;62.12;101375.09;6143395;23;20073;-88
2023/05/26 08:02:31;;;;;;;18.50;6.20;;;;;;;19.40;60.06;101360.19;6142085;23;20052;-88
2023/05/26 08:05:43;;;;;;;19.00;6.78;;;;;;;19.74;58.71;101356.94;6149920;23;20031;-89
2023/05/26 08:08:25;;;;;;;19.05;6.82;;;;;;;20.13;57.88;101382.84;6213773;23;20051;-89
2023/05/26 08:11:12;;;;;;;21.23;6.30;;;;;;;20.23;56.93;101372.28;6251759;23;20159;-89
2023/05/26 08:14:13;;;;;;;17.20;5.93;;;;;;;20.36;57.84;101361.50;6240640;22;20020;-89
2023/05/26 08:17:05;;;;;;;17.40;5.57;;;;;;;20.23;56.28;101365.06;6215683;23;20039;-88
2023/05/26 08:19:36;;;;;;;17.30;5.60;;;;;;;20.20;57.41;101361.75;6266503;23;20418;-89
2023/05/26 08:26:19;;;;;;;19.38;6.40;;;;;;;20.61;57.50;101353.41;6204991;23;20047;-88
2023/05/26 08:29:10;;;;;;;16.42;6.05;;;;;;;20.50;56.36;101358.69;6179775;23;20031;-88
2023/05/26 08:31:39;;;;;;;13.18;5.07;;;;;;;20.58;55.17;101361.69;6208914;23;20087;-86
2023/05/26 08:34:13;;;;;;;22.27;5.53;;;;;;;20.59;54.60;101353.50;6238072;23;20012;-87
2023/05/26 08:36:43;;;;;;;16.55;6.00;;;;;;;20.49;54.34;101363.22;6238461;23;20031;-89
2023/05/26 08:39:16;;;;;;;17.00;5.57;;;;;;;20.14;55.38;101352.31;6240041;23;20020;-86
2023/05/26 08:42:12;;;;;;;13.27;5.35;;;;;;;19.86;57.35;101326.50;6238029;23;20019;-89
2023/05/26 08:44:44;;;;;;;16.67;5.70;;;;;;;19.81;56.67;101334.06;6241063;23;20031;-86
2023/05/26 08:47:26;;;;;;;14.55;5.22;;;;;;;19.94;57.21;101351.03;6270373;23;20016;-88
2023/05/26 08:50:16;;;;;;;18.67;5.32;;;;;;;19.98;57.12;101350.81;6271809;23;20075;-87
2023/05/26 08:53:05;;;;;;;18.58;6.00;;;;;;;19.76;58.58;101320.06;6271018;23;20031;-88
2023/05/26 08:55:56;;;;;;;18.85;5.47;;;;;;;20.11;59.29;101341.75;6231188;23;20046;-89
2023/05/26 08:58:24;;;;;;;16.17;5.82;;;;;;;20.22;55.10;101327.53;6238097;23;20038;-87
2023/05/26 09:01:04;;;;;;;15.85;5.22;;;;;;;20.35;55.67;101322.97;6191999;23;20049;-88
2023/05/26 09:08:00;;;;;;;16.90;5.30;;;;;;;20.64;53.88;101345.06;6268316;23;20073;-88
2023/05/26 09:10:51;;;;;;;17.98;5.70;;;;;;;20.31;55.58;101343.00;6245953;23;20023;-88
2023/05/26 09:13:41;;;;;;;14.27;5.32;;;;;;;19.92;57.25;101334.13;6274923;22;20010;-85
2023/05/26 09:16:26;;;;;;;16.52;5.45;;;;;;;19.98;55.65;101351.69;6268161;23;20023;-88
2023/05/26 09:19:19;;;;;;;17.67;6.20;;;;;;;19.86;54.95;101347.16;6223814;22;20074;-89
2023/05/26 09:22:50;;;;;;;18.67;6.00;;;;;;;19.54;57.49;101333.28;6183359;23;20068;-88
2023/05/26 09:29:29;;;;;;;16.60;5.80;;;;;;;19.77;58.30;101350.50;6203515;23;20025;-88
2023/05/26 09:32:23;;;;;;;16.23;5.68;;;;;;;19.72;57.77;101350.81;6181739;23;20073;-89
2023/05/26 10:21:54;;;;;;;15.75;4.75;;;;;;;20.30;57.17;101331.38;6257856;23;20062;-90
2023/05/26 10:24:55;;;;;;;14.80;5.05;;;;;;;20.17;54.67;101308.16;6232287;23;20334;-88
2023/05/26 10:28:29;;;;;;;16.20;5.35;;;;;;;20.23;54.57;101323.88;6256515;22;20015;-89
2023/05/26 10:31:30;;;;;;;16.70;5.25;;;;;;;20.16;56.03;101307.31;6263790;22;20090;-87
2023/05/26 10:38:34;;;;;;;16.80;5.32;;;;;;;20.53;55.55;101326.19;6294903;22;20016;-89
2023/05/26 10:44:52;;;;;;;;;;;;;;;20.65;53.85;101317.19;6296566;22;20498;-89
2023/05/26 10:55:24;;;;;;;14.50;4.60;;;;;;;20.60;53.69;101317.56;6118169;23;20018;-88
2023/05/26 10:58:36;;;;;;;11.65;4.32;;;;;;;20.71;52.81;101313.19;6062930;23;20097;-90
2023/05/26 11:04:56;;;;;;;12.38;4.80;;;;;;;21.11;51.56;101305.63;6145165;23;20025;-88
2023/05/26 11:08:02;;;;;;;10.45;4.88;;;;;;;21.22;50.93;101320.06;6113917;23;20058;-87
2023/05/26 11:10:57;;;;;;;12.40;4.68;;;;;;;21.33;51.01;101308.44;6113671;23;20022;-87
2023/05/26 11:14:10;;;;;;;12.20;4.57;;;;;;;21.29;50.25;101297.03;6077470;23;20071;-87
2023/05/26 11:16:59;;;;;;;10.20;4.40;;;;;;;21.52;50.18;101308.72;6092200;23;20062;-89
2023/05/26 11:20:20;;;;;;;14.48;4.93;;;;;;;21.71;49.93;101300.06;6086952;23;20021;-90
2023/05/26 11:27:16;;;;;;;14.32;4.80;;;;;;;21.92;48.38;101302.84;6077210;23;20188;-87
2023/05/26 11:41:04;;;;;;;16.33;4.70;;;;;;;21.88;47.88;101286.06;6145129;23;20048;-87
2023/05/26 11:51:37;;;;;;;16.75;5.47;;;;;;;21.55;47.69;101284.25;6070801;23;20029;-89
2023/05/26 11:55:33;;;;;;;14.98;4.38;;;;;;;21.62;48.47;101281.91;6142672;23;20017;-88
2023/05/26 12:02:01;;;;;;;15.70;4.55;;;;;;;22.03;47.35;101284.88;6175270;23;20538;-89
2023/05/26 12:04:48;;;;;;;14.60;4.32;;;;;;;22.13;46.48;101273.34;6150441;23;20045;-90
2023/05/26 12:07:34;;;;;;;15.82;4.70;;;;;;;22.14;47.76;101284.00;6234961;23;20091;-88
2023/05/26 12:10:27;;;;;;;15.18;5.00;;;;;;;22.00;46.09;101279.75;6263545;23;20012;-88
2023/05/26 12:17:01;;;;;;;15.70;4.82;;;;;;;22.21;46.81;101268.16;6295616;22;20042;-87
2023/05/26 12:19:43;;;;;;;16.50;4.75;;;;;;;22.15;46.19;101268.69;6268013;22;20038;-87
2023/05/26 12:22:27;;;;;;;;;;;;;;;22.02;46.46;101272.38;6267357;22;20015;-87
2023/05/26 12:25:00;;;;;;;16.17;4.35;;;;;;;21.96;46.60;101251.25;6265199;22;19911;-87
2023/05/26 12:30:58;;;;;;;14.88;4.25;;;;;;;22.02;47.06;101250.81;6294390;22;20085;-87
2023/05/26 12:33:43;;;;;;;15.25;4.45;;;;;;;22.30;46.99;101267.44;6268064;22;20021;-88
2023/05/26 12:36:23;;;;;;;16.90;5.15;;;;;;;22.36;46.10;101264.19;6269823;22;20016;-89
2023/05/26 12:39:07;;;;;;;17.88;4.25;;;;;;;22.40;45.52;101257.56;6265245;22;20046;-89
2023/05/26 12:41:53;;;;;;;13.25;4.70;;;;;;;22.21;45.97;101241.19;6180202;23;20031;-89
2023/05/26 12:45:15;;;;;;;15.13;4.55;;;;;;;22.25;45.77;101266.94;6196842;23;20013;-89
2023/05/26 12:47:53;;;;;;;17.20;4.78;;;;;;;22.18;45.50;101260.34;6202390;23;20020;-88
2023/05/26 12:50:39;;;;;;;15.35;5.10;;;;;;;22.11;45.90;101259.13;6204561;23;20025;-89
2023/05/26 12:53:21;;;;;;;13.82;4.63;;;;;;;22.00;45.88;101223.09;6203950;23;20084;-88
2023/05/26 12:56:03;;;;;;;16.45;4.50;;;;;;;22.21;46.09;101250.13;6211087;23;20009;-87
2023/05/26 12:58:43;;;;;;;12.75;4.90;;;;;;;22.13;45.45;101249.06;6189684;23;20071;-89
2023/05/26 13:01:43;;;;;;;15.05;4.40;;;;;;;22.05;46.46;101245.13;6212234;23;20013;-89
2023/05/26 13:04:35;;;;;;;14.60;4.95;;;;;;;22.13;45.96;101238.28;6211430;23;20083;-89
2023/05/26 13:07:16;;;;;;;14.73;4.93;;;;;;;22.19;45.74;101238.63;6206404;23;20017;-89
2023/05/26 13:10:06;;;;;;;17.95;4.47;;;;;;;22.20;45.37;101237.63;6204206;23;20119;-89
2023/05/26 13:13:16;;;;;;;14.05;4.25;;;;;;;22.41;45.86;101240.41;6196481;23;20071;-90
2023/05/26 13:16:00;;;;;;;16.05;4.78;;;;;;;22.54;44.20;101242.94;6168798;23;20021;-91
2023/05/26 13:19:17;;;;;;;11.27;4.50;;;;;;;22.37;44.65;101222.75;6199730;23;20048;-88
2023/05/26 13:22:01;;;;;;;13.90;4.25;;;;;;;22.29;44.97;101236.03;6209170;23;20017;-88
2023/05/26 13:24:29;;;;;;;13.38;4.72;;;;;;;22.38;44.99;101246.03;6159013;23;20021;-88
2023/05/26 13:27:14;;;;;;;13.80;4.13;;;;;;;22.50;45.18;101238.78;6227192;23;20019;-87
2023/05/26 13:29:56;;;;;;;14.32;4.45;;;;;;;22.51;44.79;101219.75;6263373;23;20016;-88
2023/05/26 13:32:37;;;;;;;15.40;4.88;;;;;;;22.69;44.78;101229.00;6241037;22;20079;-88
2023/05/26 13:38:45;;;;;;;12.10;4.05;;;;;;;22.79;44.98;101239.06;6262621;22;20103;-90
2023/05/26 13:41:18;;;;;;;15.63;4.75;;;;;;;22.91;43.58;101236.16;6234908;22;20020;-90
2023/05/26 13:44:00;;;;;;;14.43;4.43;;;;;;;22.97;43.31;101232.97;6234717;23;20023;-90
2023/05/26 13:46:41;;;;;;;16.85;4.82;;;;;;;22.83;43.12;101235.09;6235048;22;20067;-90
2023/05/26 13:49:09;;;;;;;16.73;4.85;;;;;;;22.69;43.41;101220.91;6212667;23;20016;-89
2023/05/26 13:51:39;;;;;;;;;;;;;;;22.66;43.86;101228.41;6212109;23;20016;-92
2023/05/26 13:54:20;;;;;;;;;;;;;;;22.57;43.76;101230.03;6240325;22;19911;-90
2023/05/26 13:57:03;;;;;;;17.00;4.40;;;;;;;22.49;43.80;101227.13;6243264;23;19903;-90
2023/05/26 13:59:53;;;;;;;18.63;4.95;;;;;;;22.47;43.93;101223.72;6233337;22;20020;-90
2023/05/26 14:02:34;;;;;;;14.63;4.53;;;;;;;22.46;44.54;101235.50;6239781;23;20064;-89
2023/05/26 14:05:19;;;;;;;15.15;4.07;;;;;;;22.57;45.19;101235.44;6214430;23;20027;-90
2023/05/26 14:08:05;;;;;;;13.20;4.35;;;;;;;22.62;44.07;101245.84;6249806;22;20015;-89
2023/05/26 14:10:49;;;;;;;11.75;4.50;;;;;;;22.56;43.68;101239.13;6251330;22;20040;-89